Saint Louis, MO

9:06 PM CST on February 07, 2016 (GMT -0600)
Glendale, MO | | Change Station
CLOSE
Current Station
Personal Weather Station
Location: Saint Louis, MO
Elevation: 623 ft
Nearby Weather Stations

Elev 623 ft 38.59 °N, 90.38 °W | Updated 41 seconds ago

Overcast
Overcast
39.9 °F
Feels Like 40 °F
N
2.7
Wind Variable Wind from WNW

Today
High -- | Low -- °F
--% Chance of Precip.
Yesterday
High -- | Low -- °F
Precip. -- in
Pressure 29.91 in
Visibility 10.0 miles
Clouds Few 5000 ft
Scattered Clouds 11000 ft
Windchill 40 °F
Dew Point 31 °F
Humidity 69%
Rainfall 0.00 in
Snow Depth Not available.
7:01 AM 5:29 PM
Waning Crescent, 0% visible
METAR KSTL 080251Z 29004KT 10SM FEW050 SCT110 04/M01 A2989 RMK AO2 RAE0155 SLP128 P0000 60000 T00391011 58003 $
Pressure 29.91 in
Visibility 10.0 miles
Clouds Few 5000 ft
Scattered Clouds 11000 ft
Windchill 40 °F
Dew Point 31 °F
Humidity 69%
Rainfall 0.00 in
Snow Depth Not available.
7:01 AM 5:29 PM
Waning Crescent, 0% visible
METAR KSTL 080251Z 29004KT 10SM FEW050 SCT110 04/M01 A2989 RMK AO2 RAE0155 SLP128 P0000 60000 T00391011 58003 $

10-Day Weather Forecast

Almanac

Astronomy

Feb. 07, 2016 Rise Set
Actual Time
Civil Twilight
Nautical Twilight
Astronomical Twilight
Moon
Length of Visible Light
Length of Day
Tomorrow will be .
, % of the Moon is Illuminated

Today's Extremes

State Highs State Lows

Community

WunderPhotos

Upload Photos

1,891,373 photos uploaded!

WunderBlog® & News

Nearby

Air Quality

  Air Quality AQ Index Pollutant
Not available.

Snow Depth

Station Depth Elevation

Earthquake Activity

City Distance Mag. Time & Date
Minimum magnitude displayed is 2.5.

Coastal Water Temperatures

Place Temperature

Stations

Nearby Weather Stations

Station Location Temp. Windchill Dew Point Humidity Wind Precip. Elev Updated Type
                   

Watches & Warnings

There are currently no watches in effect.